Time;durP1;ratioP1;P1;durP2;ratioP2;P2;SDS_P1;SDS_P2;PMS_P1;PMS_P2;Temp;Humidity;BMP_temperature;BMP_pressure;BME280_temperature;BME280_humidity;BME280_pressure;Samples;Min_cycle;Max_cycle;Signal;HPM_P1;HPM_P2
2023/08/07 03:00:43;;;;;;;0.45;0.10;;;21.90;54.30;;;;;;6000327;23;45787;31
2023/08/07 03:03:09;;;;;;;0.80;0.10;;;21.90;54.40;;;;;;4880532;28;45522;-84
2023/08/07 03:05:34;;;;;;;0.00;0.00;;;21.80;55.00;;;;;;4846335;28;47077;-88
2023/08/07 03:08:00;;;;;;;0.10;0.10;;;21.90;54.40;;;;;;4866824;28;45579;-84
2023/08/07 03:10:25;;;;;;;0.30;0.10;;;21.90;54.40;;;;;;4865695;29;44681;-85
2023/08/07 03:12:51;;;;;;;0.10;0.10;;;21.90;54.40;;;;;;4865564;28;45682;-84
2023/08/07 03:15:17;;;;;;;0.22;0.10;;;21.90;54.40;;;;;;4865530;29;47107;-84
2023/08/07 03:17:42;;;;;;;0.55;0.10;;;21.90;54.30;;;;;;4860830;28;46112;-86
2023/08/07 03:20:10;;;;;;;0.85;0.10;;;21.90;54.30;;;;;;4862463;28;45317;-85
2023/08/07 03:22:36;;;;;;;0.30;0.10;;;21.90;54.30;;;;;;4866010;28;45573;-84
2023/08/07 03:25:05;;;;;;;0.38;0.10;;;21.80;54.30;;;;;;4867378;28;47124;-84
2023/08/07 03:27:30;;;;;;;0.10;0.00;;;21.90;54.30;;;;;;4864996;29;45444;-85
2023/08/07 03:29:56;;;;;;;0.43;0.10;;;21.90;54.30;;;;;;4855986;28;44753;-85
2023/08/07 03:32:21;;;;;;;0.45;0.10;;;21.90;54.30;;;;;;4846134;28;45499;-84
2023/08/07 03:34:47;;;;;;;1.40;0.20;;;21.90;54.30;;;;;;4866492;28;47624;-84
2023/08/07 03:37:13;;;;;;;1.58;0.20;;;21.90;54.30;;;;;;4876356;28;45676;-84
2023/08/07 03:39:38;;;;;;;0.32;0.15;;;21.80;54.30;;;;;;4846436;28;45506;-85
2023/08/07 03:42:04;;;;;;;0.43;0.10;;;21.80;54.30;;;;;;4845416;28;44773;-84
2023/08/07 03:44:29;;;;;;;0.50;0.10;;;21.90;54.30;;;;;;4850222;28;47076;-84
2023/08/07 03:46:57;;;;;;;0.15;0.10;;;21.80;54.20;;;;;;4860020;28;45755;-84
2023/08/07 03:49:23;;;;;;;0.52;0.20;;;21.80;54.20;;;;;;4865487;29;45126;-84
2023/08/07 03:51:49;;;;;;;0.50;0.20;;;21.80;54.20;;;;;;4868985;28;44767;-85
2023/08/07 03:54:14;;;;;;;0.70;0.10;;;21.90;54.30;;;;;;4855570;28;45995;-84
2023/08/07 03:56:40;;;;;;;0.40;0.10;;;21.80;54.20;;;;;;4862729;28;45518;-86
2023/08/07 03:59:06;;;;;;;0.20;0.20;;;21.80;54.20;;;;;;4882380;28;44906;-85
2023/08/07 04:01:31;;;;;;;0.10;0.10;;;21.80;54.20;;;;;;4875858;29;45522;-85
2023/08/07 04:03:57;;;;;;;0.10;0.10;;;21.80;54.20;;;;;;4868280;28;47400;-84
2023/08/07 04:06:22;;;;;;;0.22;0.20;;;21.90;54.20;;;;;;4874651;28;45207;-84
2023/08/07 04:08:48;;;;;;;0.28;0.10;;;21.80;54.20;;;;;;4879372;28;45165;-84
2023/08/07 04:11:14;;;;;;;0.73;0.20;;;21.90;54.20;;;;;;4861776;28;45343;-84
2023/08/07 04:13:39;;;;;;;0.32;0.10;;;21.80;54.20;;;;;;4882773;28;46322;-86
2023/08/07 04:16:05;;;;;;;2.13;0.35;;;21.80;54.20;;;;;;4876903;29;45299;-85
2023/08/07 04:18:31;;;;;;;0.22;0.22;;;21.80;54.20;;;;;;4879931;29;45274;-85
2023/08/07 04:20:57;;;;;;;0.10;0.10;;;21.80;54.20;;;;;;4875066;28;45074;-83
2023/08/07 04:23:23;;;;;;;0.20;0.15;;;21.80;54.20;;;;;;4863897;29;46945;-86
2023/08/07 04:25:48;;;;;;;0.35;0.10;;;21.80;54.10;;;;;;4863560;28;45332;-83
2023/08/07 04:28:14;;;;;;;0.22;0.10;;;21.80;54.20;;;;;;4877190;28;44815;-85
2023/08/07 04:30:41;;;;;;;1.23;0.28;;;21.80;54.20;;;;;;4871806;28;45796;-88
2023/08/07 04:33:07;;;;;;;0.30;0.15;;;21.80;54.20;;;;;;4863766;29;46930;-84
2023/08/07 04:35:32;;;;;;;0.30;0.20;;;21.80;54.20;;;;;;4875959;28;44994;-84
2023/08/07 04:37:58;;;;;;;0.60;0.20;;;21.80;54.10;;;;;;4881569;28;45703;-85
2023/08/07 04:40:23;;;;;;;1.02;0.17;;;21.80;54.10;;;;;;4846533;29;45229;-86
2023/08/07 04:42:49;;;;;;;1.23;0.40;;;21.80;54.10;;;;;;4865681;28;46966;-84
2023/08/07 04:45:15;;;;;;;0.88;0.40;;;21.80;54.20;;;;;;4861507;29;45294;-84
2023/08/07 04:47:41;;;;;;;0.80;0.30;;;21.80;54.10;;;;;;4880343;28;45668;-90
2023/08/07 04:50:08;;;;;;;0.50;0.20;;;21.80;54.10;;;;;;4849203;29;45220;-87
2023/08/07 04:52:34;;;;;;;0.55;0.20;;;21.80;54.10;;;;;;4863810;29;46719;-85
2023/08/07 04:55:00;;;;;;;0.73;0.30;;;21.70;54.00;;;;;;4869748;28;45921;-86
2023/08/07 04:57:25;;;;;;;0.50;0.25;;;21.80;54.10;;;;;;4864896;29;45141;-84
2023/08/07 04:59:52;;;;;;;0.90;0.20;;;21.80;54.10;;;;;;4881530;28;45133;-85
2023/08/07 05:02:17;;;;;;;0.52;0.32;;;21.80;54.10;;;;;;4858154;29;47198;-85
2023/08/07 05:04:43;;;;;;;0.60;0.40;;;21.80;54.10;;;;;;4854132;29;45521;-85
2023/08/07 05:07:09;;;;;;;0.40;0.25;;;21.80;54.10;;;;;;4861385;29;45296;-84
2023/08/07 05:09:35;;;;;;;0.38;0.20;;;21.80;54.10;;;;;;4867448;29;45491;-85
2023/08/07 05:12:01;;;;;;;0.38;0.30;;;21.70;54.00;;;;;;4864853;29;47328;-84
2023/08/07 05:14:27;;;;;;;0.30;0.30;;;21.70;54.00;;;;;;4880536;29;45158;-83
2023/08/07 05:16:52;;;;;;;0.55;0.28;;;21.70;54.00;;;;;;4863480;29;45467;-83
2023/08/07 05:19:18;;;;;;;0.35;0.30;;;21.70;54.00;;;;;;4897895;28;44872;-84
2023/08/07 05:21:44;;;;;;;0.77;0.38;;;21.70;54.00;;;;;;4879029;29;47087;-85
2023/08/07 05:24:09;;;;;;;1.17;0.40;;;21.70;53.40;;;;;;4864426;29;44816;-83
2023/08/07 05:26:35;;;;;;;0.43;0.30;;;21.70;54.00;;;;;;4863692;29;44956;-83
2023/08/07 05:29:01;;;;;;;0.70;0.40;;;21.70;54.00;;;;;;4882810;29;45171;-83
2023/08/07 05:31:26;;;;;;;0.60;0.30;;;21.70;54.00;;;;;;4859326;29;47418;-83
2023/08/07 05:33:52;;;;;;;0.57;0.28;;;21.70;54.60;;;;;;4882084;29;45386;-83
2023/08/07 05:36:17;;;;;;;0.32;0.20;;;21.70;54.00;;;;;;4861105;29;45336;-86
2023/08/07 05:38:43;;;;;;;1.17;0.38;;;21.70;54.00;;;;;;4862865;29;45561;-84
2023/08/07 05:41:09;;;;;;;0.52;0.30;;;21.70;54.00;;;;;;4867040;28;46016;-83
2023/08/07 05:43:34;;;;;;;0.70;0.30;;;21.70;54.00;;;;;;4878532;29;45312;-85
2023/08/07 05:46:00;;;;;;;1.10;0.43;;;21.70;53.90;;;;;;4864069;29;45266;-83
2023/08/07 05:48:26;;;;;;;0.98;0.47;;;21.70;53.90;;;;;;4864716;29;45688;-83
2023/08/07 05:50:52;;;;;;;0.88;0.30;;;21.70;53.90;;;;;;4858333;29;47118;-85
2023/08/07 05:53:18;;;;;;;0.52;0.32;;;21.70;53.90;;;;;;4862767;29;45177;-83
2023/08/07 05:55:43;;;;;;;1.52;0.40;;;21.70;53.90;;;;;;4880329;29;45193;-85
2023/08/07 05:58:09;;;;;;;0.43;0.28;;;21.70;53.90;;;;;;4886627;29;45215;-83
2023/08/07 06:00:34;;;;;;;0.52;0.38;;;21.70;53.90;;;;;;4866903;29;46006;-82
2023/08/07 06:03:00;;;;;;;0.52;0.30;;;21.70;53.90;;;;;;4878466;29;45220;-84
2023/08/07 06:05:25;;;;;;;0.77;0.35;;;21.70;53.90;;;;;;4847146;29;45512;-86
2023/08/07 06:07:51;;;;;;;1.17;0.38;;;21.70;53.90;;;;;;4879642;29;45344;-84
2023/08/07 06:10:17;;;;;;;1.13;0.40;;;21.70;53.90;;;;;;4850010;29;47303;-83
2023/08/07 06:12:42;;;;;;;0.22;0.22;;;21.70;53.90;;;;;;4867273;29;44946;-82
2023/08/07 06:15:11;;;;;;;0.73;0.50;;;21.70;53.90;;;;;;4865644;29;44804;-88
2023/08/07 06:17:39;;;;;;;0.73;0.35;;;21.70;53.90;;;;;;4849999;29;45704;-84
2023/08/07 06:20:08;;;;;;;1.10;0.30;;;21.70;53.90;;;;;;4850019;29;46808;-87
2023/08/07 06:22:34;;;;;;;1.05;0.32;;;21.70;53.90;;;;;;4878543;29;45501;-82
2023/08/07 06:25:00;;;;;;;0.40;0.32;;;21.70;53.90;;;;;;4866195;29;45566;-82
2023/08/07 06:27:25;;;;;;;1.10;0.40;;;21.70;53.90;;;;;;4881026;29;45308;-83
2023/08/07 06:29:51;;;;;;;0.75;0.50;;;21.70;53.90;;;;;;4868606;29;46421;-84
2023/08/07 06:32:18;;;;;;;0.35;0.30;;;21.70;53.90;;;;;;4865502;29;45147;-84
2023/08/07 06:34:43;;;;;;;1.15;0.70;;;21.70;53.90;;;;;;4880660;29;45815;-84
2023/08/07 06:37:09;;;;;;;0.80;0.40;;;21.70;53.90;;;;;;4885744;29;45006;-83
2023/08/07 06:39:35;;;;;;;0.50;0.35;;;21.70;54.30;;;;;;4873783;29;46628;-86
2023/08/07 06:42:00;;;;;;;1.35;0.32;;;21.70;53.90;;;;;;4867929;29;45678;-84
2023/08/07 06:44:26;;;;;;;0.80;0.40;;;21.70;53.90;;;;;;4852660;29;44834;-82
2023/08/07 06:46:52;;;;;;;1.15;0.40;;;21.70;53.90;;;;;;4880916;29;45500;-83
2023/08/07 06:49:18;;;;;;;0.40;0.35;;;21.70;53.90;;;;;;4869056;29;47119;-86
2023/08/07 06:51:43;;;;;;;0.55;0.40;;;21.70;53.90;;;;;;4854279;29;45457;-84
2023/08/07 06:54:09;;;;;;;0.52;0.40;;;21.70;53.90;;;;;;4880944;29;44912;-83
2023/08/07 06:56:34;;;;;;;2.03;0.50;;;21.70;53.90;;;;;;4879699;29;45562;-83
2023/08/07 06:59:00;;;;;;;0.57;0.47;;;21.60;53.80;;;;;;4867632;29;45402;-84
2023/08/07 07:01:25;;;;;;;1.02;0.45;;;21.70;53.90;;;;;;4872415;29;45674;-86
2023/08/07 07:03:52;;;;;;;0.63;0.35;;;21.70;53.90;;;;;;4862604;29;45571;-87
2023/08/07 07:06:18;;;;;;;2.90;0.60;;;21.70;53.90;;;;;;4878522;28;45684;-84
2023/08/07 07:08:44;;;;;;;2.13;0.50;;;21.60;53.80;;;;;;4863032;29;47370;-85
2023/08/07 07:11:09;;;;;;;0.93;0.55;;;21.70;53.90;;;;;;4863638;29;45485;-83
2023/08/07 07:13:35;;;;;;;2.05;0.70;;;21.60;53.80;;;;;;4863961;29;45534;-83
2023/08/07 07:16:01;;;;;;;1.42;0.73;;;21.60;53.80;;;;;;4860396;29;45357;-85
2023/08/07 07:18:27;;;;;;;1.23;0.50;;;21.60;53.80;;;;;;4878736;29;45423;-84
2023/08/07 07:21:00;;;;;;;0.85;0.60;;;21.60;53.80;;;;;;4860469;29;45379;-87
2023/08/07 07:23:26;;;;;;;1.03;0.57;;;21.60;53.80;;;;;;4893356;28;45141;-82
2023/08/07 07:25:52;;;;;;;0.82;0.50;;;21.60;53.80;;;;;;4859099;29;44679;-83
2023/08/07 07:28:17;;;;;;;1.73;0.40;;;21.60;53.90;;;;;;4876069;29;45233;-85
2023/08/07 07:30:43;;;;;;;1.23;0.50;;;21.70;53.80;;;;;;4872172;29;45455;-84
2023/08/07 07:33:08;;;;;;;1.27;0.50;;;21.60;53.80;;;;;;4865773;29;45228;-84
2023/08/07 07:35:38;;;;;;;1.95;0.52;;;21.60;53.80;;;;;;4874252;29;44978;-83
2023/08/07 07:38:04;;;;;;;1.08;0.52;;;21.60;53.80;;;;;;4849354;29;47417;-83
2023/08/07 07:40:29;;;;;;;1.13;0.68;;;21.60;53.80;;;;;;4860365;29;44632;-86
2023/08/07 07:42:55;;;;;;;1.42;0.68;;;21.60;53.80;;;;;;4874389;29;46301;-86
2023/08/07 07:45:21;;;;;;;1.95;0.70;;;21.60;53.80;;;;;;4872907;29;45243;-83
2023/08/07 07:47:46;;;;;;;1.45;0.57;;;21.60;53.80;;;;;;4872349;29;45968;-84
2023/08/07 07:50:13;;;;;;;0.55;0.35;;;21.60;53.80;;;;;;4844427;29;45218;-84
2023/08/07 07:52:39;;;;;;;1.25;0.50;;;21.60;53.80;;;;;;4876586;29;45028;-83
2023/08/07 07:55:05;;;;;;;1.15;0.43;;;21.60;53.80;;;;;;4860430;29;45300;-88
2023/08/07 07:57:30;;;;;;;0.90;0.60;;;21.60;53.80;;;;;;4860130;29;46536;-84
2023/08/07 07:59:57;;;;;;;1.30;0.60;;;21.60;53.80;;;;;;4876762;29;45422;-88
2023/08/07 08:02:24;;;;;;;1.75;0.50;;;21.60;53.80;;;;;;4872111;29;45446;-85
2023/08/07 08:04:50;;;;;;;1.35;0.60;;;21.60;53.80;;;;;;4862136;29;45207;-82
2023/08/07 08:07:16;;;;;;;1.05;0.50;;;21.60;53.80;;;;;;4877101;29;45306;-83
2023/08/07 08:09:41;;;;;;;1.20;0.57;;;21.60;53.80;;;;;;4881743;29;44847;-83
2023/08/07 08:12:08;;;;;;;1.50;0.60;;;21.60;53.80;;;;;;4879874;29;45246;-85
2023/08/07 08:14:33;;;;;;;1.33;0.60;;;21.60;53.80;;;;;;4880499;29;44873;-82
2023/08/07 08:16:59;;;;;;;0.95;0.52;;;21.60;53.80;;;;;;4877104;29;46282;-84
2023/08/07 08:19:24;;;;;;;2.05;0.63;;;21.60;53.80;;;;;;4863568;29;45298;-84
2023/08/07 08:21:50;;;;;;;1.55;0.55;;;21.60;53.80;;;;;;4863297;29;45512;-82
2023/08/07 08:24:15;;;;;;;1.52;0.77;;;21.60;53.80;;;;;;4847727;29;44870;-83
2023/08/07 08:26:41;;;;;;;1.85;0.63;;;21.60;53.80;;;;;;4862999;29;47587;-85
2023/08/07 08:29:07;;;;;;;2.55;0.60;;;21.60;53.80;;;;;;4869078;29;44752;-82
2023/08/07 08:31:34;;;;;;;1.38;0.60;;;21.60;53.80;;;;;;4859937;29;45305;-83
2023/08/07 08:33:59;;;;;;;1.05;0.50;;;21.60;53.80;;;;;;4878449;29;45669;-83
2023/08/07 08:36:25;;;;;;;1.50;0.60;;;21.60;53.90;;;;;;4862392;29;46884;-83
2023/08/07 08:38:51;;;;;;;1.15;0.50;;;21.60;53.90;;;;;;4876693;29;44981;-87
2023/08/07 08:41:17;;;;;;;1.65;0.55;;;21.60;53.90;;;;;;4892658;28;45278;-83
2023/08/07 08:43:42;;;;;;;1.20;0.63;;;21.60;53.90;;;;;;4881261;29;44859;-84
2023/08/07 08:46:08;;;;;;;2.10;0.50;;;21.60;53.90;;;;;;4873918;29;46258;-83
2023/08/07 08:48:37;;;;;;;0.73;0.43;;;21.60;53.90;;;;;;4877747;29;45393;-83
2023/08/07 08:51:03;;;;;;;0.88;0.52;;;21.60;53.80;;;;;;4878508;29;45301;-84
2023/08/07 08:53:29;;;;;;;1.08;0.70;;;21.60;53.90;;;;;;4882564;29;45548;-84
2023/08/07 08:55:54;;;;;;;0.45;0.40;;;21.60;53.90;;;;;;4877911;29;46563;-82
2023/08/07 08:58:20;;;;;;;1.35;0.68;;;21.60;53.90;;;;;;4868045;29;45275;-83
2023/08/07 09:00:45;;;;;;;0.47;0.38;;;21.60;53.90;;;;;;4879319;29;45066;-82
2023/08/07 09:03:11;;;;;;;0.43;0.40;;;21.60;53.90;;;;;;4880416;29;45588;-83
2023/08/07 09:05:37;;;;;;;1.23;0.80;;;21.60;53.90;;;;;;4863764;29;46434;-82
2023/08/07 09:08:02;;;;;;;0.60;0.50;;;21.60;53.90;;;;;;4869091;29;45294;-83
2023/08/07 09:10:29;;;;;;;1.48;0.70;;;21.60;53.90;;;;;;4831458;29;45379;-83
2023/08/07 09:13:04;;;;;;;1.95;0.55;;;21.60;53.90;;;;;;4886593;29;45018;-85
2023/08/07 09:15:31;;;;;;;1.42;0.77;;;21.60;53.90;;;;;;4882393;29;46580;-82
2023/08/07 09:17:56;;;;;;;1.23;0.60;;;21.50;53.90;;;;;;4883773;29;45317;-85
2023/08/07 09:20:22;;;;;;;1.13;0.57;;;21.60;53.90;;;;;;4878511;29;46131;-85
2023/08/07 09:22:48;;;;;;;1.00;0.52;;;21.50;53.90;;;;;;4853902;29;45003;-82
2023/08/07 09:25:14;;;;;;;0.95;0.50;;;21.60;53.90;;;;;;4880234;29;46341;-83
2023/08/07 09:27:40;;;;;;;1.23;0.60;;;21.60;53.90;;;;;;4880506;29;44719;-85
2023/08/07 09:30:09;;;;;;;1.50;0.50;;;21.60;53.90;;;;;;4849506;29;45565;-84
2023/08/07 09:32:35;;;;;;;0.68;0.30;;;21.60;53.90;;;;;;4864710;29;45492;-83
2023/08/07 09:35:06;;;;;;;0.65;0.50;;;21.50;53.90;;;;;;4883192;29;45332;-81
2023/08/07 09:37:32;;;;;;;0.77;0.52;;;21.60;53.90;;;;;;4865385;29;45479;-82
2023/08/07 09:40:01;;;;;;;1.85;0.73;;;21.50;53.90;;;;;;4873959;29;45796;-83
2023/08/07 09:42:33;;;;;;;1.00;0.60;;;21.60;53.90;;;;;;4881385;29;46663;-83
2023/08/07 09:45:00;;;;;;;1.02;0.50;;;21.50;53.90;;;;;;4899475;28;45567;-84
2023/08/07 09:47:25;;;;;;;1.58;0.60;;;21.50;53.90;;;;;;4876248;29;45382;-82
2023/08/07 09:49:53;;;;;;;1.40;0.50;;;21.50;53.90;;;;;;4883608;29;45607;-84
2023/08/07 09:52:19;;;;;;;1.90;0.73;;;21.50;53.90;;;;;;4862475;29;45190;-84
2023/08/07 09:54:44;;;;;;;2.28;0.60;;;21.50;53.90;;;;;;4864864;29;46314;-82
2023/08/07 09:57:10;;;;;;;1.00;0.50;;;21.50;53.90;;;;;;4862868;29;45435;-82
2023/08/07 09:59:36;;;;;;;0.95;0.50;;;21.50;54.50;;;;;;4850637;29;45240;-82
2023/08/07 10:02:02;;;;;;;0.90;0.70;;;21.50;53.90;;;;;;4859943;29;44983;-83
2023/08/07 10:04:28;;;;;;;0.60;0.43;;;21.50;53.90;;;;;;4880446;29;45281;-82
2023/08/07 10:06:53;;;;;;;1.17;0.70;;;21.50;53.90;;;;;;4863701;29;44818;-83
2023/08/07 10:09:19;;;;;;;0.65;0.40;;;21.50;53.90;;;;;;4881240;29;45328;-82
2023/08/07 10:11:44;;;;;;;1.20;0.52;;;21.50;53.90;;;;;;4880246;29;44994;-84
2023/08/07 10:14:10;;;;;;;1.52;0.60;;;21.50;53.90;;;;;;4885029;29;45497;-83
2023/08/07 10:16:40;;;;;;;1.17;0.60;;;21.50;53.90;;;;;;4862737;29;45903;-82
2023/08/07 10:19:09;;;;;;;0.60;0.40;;;21.50;53.90;;;;;;4864231;29;44728;-83
2023/08/07 10:21:41;;;;;;;0.70;0.60;;;21.50;53.90;;;;;;4876239;28;45277;-83
2023/08/07 10:24:08;;;;;;;0.57;0.40;;;21.50;53.90;;;;;;4880410;29;46254;-83
2023/08/07 10:26:35;;;;;;;1.55;0.57;;;21.50;53.90;;;;;;4856813;29;45621;-83
2023/08/07 10:29:04;;;;;;;0.60;0.40;;;21.50;53.90;;;;;;4892883;28;45077;-83
2023/08/07 10:31:30;;;;;;;0.73;0.50;;;21.50;53.90;;;;;;4880174;29;45838;-83
2023/08/07 10:33:55;;;;;;;1.98;0.50;;;21.50;53.90;;;;;;4879280;29;45444;-82
2023/08/07 10:36:21;;;;;;;0.95;0.50;;;21.50;53.90;;;;;;4858622;29;45211;-82
2023/08/07 10:38:52;;;;;;;0.60;0.50;;;21.50;53.90;;;;;;4865407;29;45231;-82
2023/08/07 10:41:18;;;;;;;1.10;0.50;;;21.50;53.90;;;;;;4878644;29;45408;-83
2023/08/07 10:43:44;;;;;;;1.17;0.52;;;21.50;54.00;;;;;;4883921;29;47213;-81
2023/08/07 10:46:21;;;;;;;0.50;0.50;;;21.50;54.00;;;;;;4876254;29;45061;-82
2023/08/07 10:48:47;;;;;;;0.60;0.60;;;21.50;54.00;;;;;;4867600;29;45245;-81
2023/08/07 10:51:14;;;;;;;0.85;0.60;;;21.50;54.00;;;;;;4878031;29;45757;-84
2023/08/07 10:53:45;;;;;;;1.55;0.50;;;21.50;54.00;;;;;;4888933;29;45716;-81
2023/08/07 10:56:15;;;;;;;0.40;0.40;;;21.50;53.90;;;;;;4878437;29;46462;-84
2023/08/07 10:58:40;;;;;;;1.02;0.40;;;21.50;54.00;;;;;;4851699;29;45552;-82
2023/08/07 11:01:24;;;;;;;2.70;0.98;;;21.50;54.00;;;;;;4876140;28;46123;-85
2023/08/07 11:03:57;;;;;;;0.95;0.50;;;21.50;53.90;;;;;;4866938;29;45765;-82
2023/08/07 11:06:34;;;;;;;0.50;0.50;;;21.50;54.00;;;;;;4883725;28;44998;-82
2023/08/07 11:09:04;;;;;;;0.75;0.47;;;21.50;53.90;;;;;;4872932;28;45492;-82
2023/08/07 11:11:40;;;;;;;2.10;0.65;;;21.50;54.60;;;;;;4864558;28;45455;-84
2023/08/07 11:14:26;;;;;;;3.95;0.60;;;21.50;54.00;;;;;;4899416;28;46687;-85
2023/08/07 11:16:51;;;;;;;1.92;0.60;;;21.50;53.90;;;;;;4895052;28;45288;-84
2023/08/07 11:19:17;;;;;;;1.92;0.70;;;21.40;53.90;;;;;;4869724;28;45691;-82
2023/08/07 11:21:44;;;;;;;2.63;0.70;;;21.50;54.00;;;;;;4866099;29;45471;-83
2023/08/07 11:24:12;;;;;;;3.58;0.70;;;21.50;54.00;;;;;;4866606;28;47232;-81
2023/08/07 11:26:37;;;;;;;1.02;0.45;;;21.50;54.00;;;;;;4880305;29;46053;-82
2023/08/07 11:29:03;;;;;;;1.98;0.55;;;21.40;54.00;;;;;;4883579;28;45100;-82
2023/08/07 11:31:29;;;;;;;2.28;0.57;;;21.50;54.00;;;;;;4859896;28;45398;-84
2023/08/07 11:33:57;;;;;;;0.90;0.50;;;21.50;54.10;;;;;;4878998;28;46336;-84
2023/08/07 11:36:23;;;;;;;1.92;0.52;;;21.40;54.00;;;;;;4874778;28;45245;-83
2023/08/07 11:38:48;;;;;;;0.88;0.32;;;21.50;54.00;;;;;;4877916;28;45355;-82
2023/08/07 11:41:15;;;;;;;0.70;0.40;;;21.50;54.10;;;;;;4867926;28;45342;-83
2023/08/07 11:43:41;;;;;;;0.95;0.57;;;21.50;54.10;;;;;;4869722;28;46809;-84
2023/08/07 11:46:08;;;;;;;1.48;0.70;;;21.40;54.00;;;;;;4879580;28;46740;-84
2023/08/07 11:48:35;;;;;;;1.63;0.70;;;21.50;54.00;;;;;;4866464;28;45428;-80
2023/08/07 11:51:00;;;;;;;1.25;0.70;;;21.50;54.00;;;;;;4876816;29;45569;-82
2023/08/07 11:53:30;;;;;;;3.05;0.80;;;21.50;54.00;;;;;;4861742;28;47147;-83
2023/08/07 11:55:58;;;;;;;3.92;0.60;;;21.50;54.00;;;;;;4858232;29;45096;-83
2023/08/07 11:58:27;;;;;;;0.85;0.50;;;21.40;54.00;;;;;;4879238;28;45974;-83
2023/08/07 12:00:53;;;;;;;1.85;0.50;;;21.40;54.00;;;;;;4859899;29;45098;-81
2023/08/07 12:03:29;;;;;;;1.27;0.68;;;21.40;54.00;;;;;;4875905;28;45320;-82
2023/08/07 12:05:56;;;;;;;2.45;0.82;;;21.50;54.00;;;;;;4871821;28;45844;-83
2023/08/07 12:08:21;;;;;;;0.85;0.52;;;21.40;54.00;;;;;;4866858;28;45446;-82
2023/08/07 12:10:53;;;;;;;0.75;0.57;;;21.40;54.00;;;;;;4879794;29;45143;-82
2023/08/07 12:13:28;;;;;;;1.45;0.70;;;21.40;54.00;;;;;;4880745;28;46239;-82
2023/08/07 12:15:54;;;;;;;2.00;0.50;;;21.40;54.00;;;;;;4880509;28;45906;-81
2023/08/07 12:18:23;;;;;;;0.60;0.50;;;21.40;54.00;;;;;;4865879;28;45427;-81
2023/08/07 12:20:52;;;;;;;2.53;0.80;;;21.50;54.10;;;;;;4871121;29;45580;-82
2023/08/07 12:23:21;;;;;;;3.90;0.60;;;21.50;54.10;;;;;;4880391;28;46168;-82
2023/08/07 12:25:47;;;;;;;2.40;0.60;;;21.40;54.00;;;;;;4864358;28;45237;-82
2023/08/07 12:28:13;;;;;;;3.20;0.60;;;21.40;54.00;;;;;;4870475;28;45050;-82
2023/08/07 12:30:38;;;;;;;1.33;0.60;;;21.40;54.00;;;;;;4865153;28;45183;-83
2023/08/07 12:33:04;;;;;;;2.45;0.50;;;21.50;54.10;;;;;;4880150;28;46830;-82
2023/08/07 12:35:34;;;;;;;1.98;0.57;;;21.40;54.00;;;;;;4877511;28;45605;-83
2023/08/07 12:38:01;;;;;;;1.15;0.60;;;21.40;54.00;;;;;;4867837;28;44959;-82
2023/08/07 12:40:27;;;;;;;0.85;0.40;;;21.40;54.00;;;;;;4877134;28;45528;-83
2023/08/07 12:42:52;;;;;;;1.98;0.57;;;21.40;54.00;;;;;;4883153;28;46668;-82
2023/08/07 12:45:19;;;;;;;1.77;0.60;;;21.40;54.00;;;;;;4850404;29;45610;-85
2023/08/07 12:47:45;;;;;;;3.05;0.70;;;21.40;54.00;;;;;;4864224;28;45253;-82
2023/08/07 12:50:11;;;;;;;1.63;0.80;;;21.40;54.00;;;;;;4879117;28;45270;-82
2023/08/07 12:52:36;;;;;;;2.35;0.82;;;21.40;54.10;;;;;;4863644;28;45338;-82
2023/08/07 12:55:06;;;;;;;0.95;0.60;;;21.40;54.00;;;;;;4866169;28;45519;-85
2023/08/07 12:57:31;;;;;;;1.48;0.50;;;21.40;54.00;;;;;;4879949;28;45826;-81
2023/08/07 12:59:57;;;;;;;0.82;0.50;;;21.40;54.10;;;;;;4880607;28;45961;-83
2023/08/07 13:02:23;;;;;;;0.80;0.50;;;21.40;54.00;;;;;;4857680;29;45569;-82
2023/08/07 13:04:49;;;;;;;1.73;0.70;;;21.40;54.10;;;;;;4863459;29;45416;-82
2023/08/07 13:07:14;;;;;;;0.70;0.60;;;21.40;54.10;;;;;;4858874;29;46143;-81
2023/08/07 13:09:40;;;;;;;0.60;0.50;;;21.40;54.00;;;;;;4878509;29;46252;-84
2023/08/07 13:12:06;;;;;;;1.17;0.60;;;21.40;54.00;;;;;;4877675;29;46393;-83
2023/08/07 13:14:31;;;;;;;0.80;0.40;;;21.40;54.00;;;;;;4862576;29;45617;-83
2023/08/07 13:16:57;;;;;;;0.65;0.57;;;21.40;54.00;;;;;;4856426;29;45319;-81
2023/08/07 13:19:22;;;;;;;0.85;0.70;;;21.40;54.00;;;;;;4876110;29;45276;-82
2023/08/07 13:21:48;;;;;;;1.15;0.57;;;21.40;54.10;;;;;;4859006;29;45466;-83
2023/08/07 13:24:14;;;;;;;0.88;0.60;;;21.40;54.00;;;;;;4837272;29;45704;-81
2023/08/07 13:26:44;;;;;;;0.65;0.50;;;21.40;54.00;;;;;;4872959;29;45677;-80
2023/08/07 13:29:11;;;;;;;0.93;0.60;;;21.40;54.00;;;;;;4878122;29;46090;-82
2023/08/07 13:31:36;;;;;;;0.82;0.55;;;21.40;54.00;;;;;;4888333;28;46738;-82
2023/08/07 13:34:07;;;;;;;0.60;0.60;;;21.40;54.10;;;;;;4876261;29;45304;-81
2023/08/07 13:36:33;;;;;;;0.80;0.50;;;21.40;54.10;;;;;;4859852;29;45597;-81
2023/08/07 13:39:00;;;;;;;1.63;0.88;;;21.40;54.10;;;;;;4859661;29;45597;-81
2023/08/07 13:41:26;;;;;;;0.60;0.50;;;21.40;54.10;;;;;;4875438;29;48310;-81
2023/08/07 13:43:51;;;;;;;0.68;0.68;;;21.40;54.10;;;;;;4875932;29;45856;-83
2023/08/07 13:46:18;;;;;;;1.00;0.63;;;21.40;54.10;;;;;;4863107;29;45534;-81
2023/08/07 13:48:44;;;;;;;0.80;0.50;;;21.40;54.10;;;;;;4874920;29;45810;-81
2023/08/07 13:51:10;;;;;;;0.60;0.60;;;21.30;54.10;;;;;;4887243;28;45516;-82
2023/08/07 13:53:35;;;;;;;0.40;0.40;;;21.30;54.00;;;;;;4876161;29;45336;-83
2023/08/07 13:56:01;;;;;;;0.68;0.50;;;21.40;54.10;;;;;;4877255;29;45360;-83
2023/08/07 13:58:27;;;;;;;1.33;0.52;;;21.40;54.10;;;;;;4862489;29;45815;-82
2023/08/07 14:00:53;;;;;;;0.85;0.50;;;21.30;54.10;;;;;;4873666;28;45556;-83
2023/08/07 14:03:19;;;;;;;0.68;0.47;;;21.30;54.00;;;;;;4878677;29;45492;-82
2023/08/07 14:05:45;;;;;;;0.55;0.50;;;21.30;54.10;;;;;;4893078;28;45578;-82
2023/08/07 14:08:10;;;;;;;0.55;0.43;;;21.30;54.10;;;;;;4859997;28;45649;-82
2023/08/07 14:10:38;;;;;;;1.10;0.70;;;21.30;54.10;;;;;;4845191;28;46230;-82
2023/08/07 14:13:04;;;;;;;0.68;0.60;;;21.30;54.00;;;;;;4877990;29;45356;-82
2023/08/07 14:15:30;;;;;;;0.95;0.60;;;21.40;54.10;;;;;;4846643;28;45225;-82
2023/08/07 14:17:57;;;;;;;1.13;0.70;;;21.30;54.00;;;;;;4875984;29;45684;-82
2023/08/07 14:20:22;;;;;;;1.73;0.50;;;21.40;54.10;;;;;;4875672;29;45763;-82
2023/08/07 14:22:48;;;;;;;0.75;0.57;;;21.30;54.10;;;;;;4878363;28;45371;-84
2023/08/07 14:25:13;;;;;;;1.50;0.50;;;21.30;54.10;;;;;;4871936;28;45347;-82
2023/08/07 14:27:39;;;;;;;1.25;0.55;;;21.30;54.10;;;;;;4867826;28;45395;-83
2023/08/07 14:30:08;;;;;;;0.45;0.45;;;21.30;54.10;;;;;;4874448;28;47069;-84
2023/08/07 14:32:34;;;;;;;2.50;0.55;;;21.30;54.00;;;;;;4889244;28;45294;-82
2023/08/07 14:34:59;;;;;;;0.50;0.50;;;21.30;54.10;;;;;;4881143;28;46482;-80
2023/08/07 14:37:25;;;;;;;1.55;0.60;;;21.30;54.10;;;;;;4882329;29;45191;-82
2023/08/07 14:39:50;;;;;;;1.38;0.70;;;21.30;54.10;;;;;;4862981;29;47060;-82
2023/08/07 14:42:16;;;;;;;0.90;0.63;;;21.30;54.10;;;;;;4858126;28;45393;-81
2023/08/07 14:44:41;;;;;;;0.50;0.50;;;21.30;54.10;;;;;;4880573;28;45397;-82
2023/08/07 14:47:07;;;;;;;1.02;0.70;;;21.30;54.10;;;;;;4862616;28;45396;-82
2023/08/07 14:49:32;;;;;;;1.17;0.60;;;21.30;54.10;;;;;;4861996;28;46556;-82
2023/08/07 14:51:58;;;;;;;1.60;0.68;;;21.30;54.10;;;;;;4874744;28;45616;-82
2023/08/07 14:54:24;;;;;;;0.82;0.52;;;21.30;54.10;;;;;;4865594;28;45487;-81
2023/08/07 14:56:49;;;;;;;2.08;1.00;;;21.30;54.10;;;;;;4874259;28;45173;-81
2023/08/07 14:59:15;;;;;;;1.25;0.60;;;21.30;54.10;;;;;;4877225;29;45378;-81
2023/08/07 15:01:40;;;;;;;0.65;0.50;;;21.30;54.10;;;;;;4851884;29;45467;-81
2023/08/07 15:04:06;;;;;;;1.30;0.70;;;21.30;54.10;;;;;;4873833;29;45671;-81
2023/08/07 15:06:32;;;;;;;1.30;0.77;;;21.30;54.10;;;;;;4860649;29;44941;-81
2023/08/07 15:08:58;;;;;;;0.77;0.55;;;21.30;54.10;;;;;;4876268;29;45429;-83
2023/08/07 15:11:24;;;;;;;1.38;0.60;;;21.30;54.10;;;;;;4844323;29;45215;-81
2023/08/07 15:13:49;;;;;;;0.50;0.40;;;21.30;54.10;;;;;;4871811;29;45284;-81
2023/08/07 15:16:15;;;;;;;1.52;0.70;;;21.30;54.10;;;;;;4868108;29;45231;-82
2023/08/07 15:18:41;;;;;;;1.13;0.65;;;21.30;54.10;;;;;;4859803;29;46291;-81
2023/08/07 15:21:06;;;;;;;0.77;0.73;;;21.30;54.10;;;;;;4857088;29;45539;-81
2023/08/07 15:23:32;;;;;;;0.95;0.60;;;21.30;54.10;;;;;;4889618;28;45429;-80
2023/08/07 15:25:57;;;;;;;1.02;0.80;;;21.30;54.10;;;;;;4854379;29;45302;-81
2023/08/07 15:28:23;;;;;;;0.88;0.60;;;21.30;54.10;;;;;;4874869;29;45856;-80
2023/08/07 15:30:49;;;;;;;1.10;0.73;;;21.30;54.10;;;;;;4849545;29;45596;-82
2023/08/07 15:33:16;;;;;;;1.35;0.80;;;21.30;54.10;;;;;;4857873;29;45368;-83
2023/08/07 15:35:42;;;;;;;1.42;0.60;;;21.30;54.10;;;;;;4872780;29;45296;-82
2023/08/07 15:38:10;;;;;;;1.23;0.77;;;21.30;54.10;;;;;;4857720;29;45646;-82
2023/08/07 15:40:37;;;;;;;0.85;0.60;;;21.30;54.10;;;;;;4855468;29;45597;-84
2023/08/07 15:43:03;;;;;;;0.60;0.47;;;21.30;54.10;;;;;;4884840;29;45243;-82